createdAt,value
2023-01-01T00:02:41.299Z,6.10
2023-01-01T00:07:44.130Z,10.75
2023-01-01T00:12:48.244Z,4.93
2023-01-01T00:17:51.055Z,4.85
2023-01-01T00:22:56.105Z,4.93
2023-01-01T00:28:00.838Z,5.30
2023-01-01T00:33:03.590Z,5.05
2023-01-01T00:38:06.375Z,5.18
2023-01-01T00:43:10.578Z,4.65
2023-01-01T00:48:13.370Z,6.15
2023-01-01T00:53:16.705Z,4.93
2023-01-01T00:58:20.902Z,5.40
2023-01-01T01:03:30.452Z,4.97
2023-01-01T01:08:34.997Z,4.57
2023-01-01T01:13:40.198Z,4.70
2023-01-01T01:18:43.345Z,4.50
2023-01-01T01:23:46.549Z,4.82
2023-01-01T01:28:51.429Z,4.65
2023-01-01T01:33:54.270Z,4.82
2023-01-01T01:38:57.419Z,4.45
2023-01-01T01:44:03.221Z,4.28
2023-01-01T01:49:13.792Z,3.90
2023-01-01T01:54:21.638Z,3.75
2023-01-01T01:59:28.313Z,4.10
2023-01-01T02:04:31.179Z,3.50
2023-01-01T02:09:34.107Z,4.75
2023-01-01T02:14:38.270Z,3.55
2023-01-01T02:19:56.679Z,3.55
2023-01-01T02:25:10.017Z,3.28
2023-01-01T02:30:15.407Z,3.92
2023-01-01T02:35:38.776Z,3.45
2023-01-01T02:40:45.230Z,3.85
2023-01-01T02:45:49.951Z,4.03
2023-01-01T02:50:53.218Z,3.72
2023-01-01T02:56:06.135Z,3.83
2023-01-01T03:01:19.768Z,4.05
2023-01-01T03:06:30.834Z,4.25
2023-01-01T03:11:43.337Z,4.82
2023-01-01T03:16:50.058Z,4.68
2023-01-01T03:21:59.135Z,5.35
2023-01-01T03:27:06.147Z,5.43
2023-01-01T03:32:14.469Z,5.20
2023-01-01T03:42:33.371Z,5.83
2023-01-01T03:47:38.372Z,6.10
2023-01-01T03:52:50.824Z,5.63
2023-01-01T03:58:03.226Z,5.55
2023-01-01T04:03:10.669Z,4.78
2023-01-01T04:08:15.952Z,4.93
2023-01-01T04:13:18.806Z,4.68
2023-01-01T04:18:22.925Z,4.78
2023-01-01T04:23:25.730Z,4.72
2023-01-01T04:28:28.482Z,5.03
2023-01-01T04:33:32.969Z,4.80
2023-01-01T04:38:36.803Z,5.10
2023-01-01T04:43:39.543Z,6.78
2023-01-01T04:48:43.766Z,4.75
2023-01-01T04:53:47.123Z,4.18
2023-01-01T04:58:50.622Z,4.50
2023-01-01T05:03:55.440Z,3.92
2023-01-01T05:08:59.574Z,3.97
2023-01-01T05:14:03.142Z,2.97
2023-01-01T05:19:08.912Z,3.05
2023-01-01T05:24:12.249Z,3.50
2023-01-01T05:29:17.043Z,3.53
2023-01-01T05:34:21.486Z,3.25
2023-01-01T05:39:24.235Z,3.72
2023-01-01T05:44:27.008Z,3.22
2023-01-01T05:49:31.152Z,3.42
2023-01-01T05:54:33.956Z,3.55
2023-01-01T05:59:36.735Z,2.90
2023-01-01T06:04:40.933Z,3.20
2023-01-01T06:09:44.081Z,2.95
2023-01-01T06:14:46.900Z,2.75
2023-01-01T06:19:51.004Z,2.80
2023-01-01T06:24:53.744Z,2.88
2023-01-01T06:29:57.658Z,2.50
2023-01-01T06:35:01.766Z,2.35
2023-01-01T06:40:05.868Z,2.78
2023-01-01T06:45:10.212Z,3.17
2023-01-01T06:50:14.344Z,2.60
2023-01-01T06:55:17.286Z,2.60
2023-01-01T07:00:20.245Z,2.28
2023-01-01T07:05:24.397Z,2.13
2023-01-01T07:10:27.252Z,2.28
2023-01-01T07:15:31.519Z,2.03
2023-01-01T07:20:35.713Z,2.40
2023-01-01T07:25:38.500Z,2.25
2023-01-01T07:30:41.345Z,2.35
2023-01-01T07:35:46.429Z,1.90
2023-01-01T07:40:49.245Z,2.03
2023-01-01T07:45:52.098Z,2.00
2023-01-01T07:50:56.340Z,1.80
2023-01-01T07:55:59.161Z,1.85
2023-01-01T08:01:01.997Z,1.35
2023-01-01T08:06:10.003Z,1.70
2023-01-01T08:11:12.757Z,1.50
2023-01-01T08:16:15.588Z,1.52
2023-01-01T08:21:19.725Z,1.85
2023-01-01T08:26:29.295Z,1.80
2023-01-01T08:31:32.135Z,1.13
2023-01-01T08:36:36.402Z,1.38
2023-01-01T08:41:39.195Z,1.00
2023-01-01T08:46:42.097Z,1.10
2023-01-01T08:51:46.346Z,1.10
2023-01-01T08:56:49.155Z,1.20
2023-01-01T09:01:52.084Z,1.20
2023-01-01T09:06:56.375Z,2.20
2023-01-01T09:12:04.037Z,1.30
2023-01-01T09:17:07.096Z,1.00
2023-01-01T09:22:12.276Z,1.17
2023-01-01T09:27:15.091Z,1.20
2023-01-01T09:32:18.628Z,1.00
2023-01-01T09:37:22.727Z,1.40
2023-01-01T09:42:36.852Z,1.33
2023-01-01T09:47:42.727Z,1.05
2023-01-01T09:52:51.877Z,1.20
2023-01-01T09:57:56.563Z,1.10
2023-01-01T10:03:14.389Z,1.40
2023-01-01T10:08:31.536Z,1.33
2023-01-01T10:13:39.231Z,1.10
2023-01-01T10:18:43.475Z,1.40
2023-01-01T10:23:53.782Z,1.65
2023-01-01T10:29:02.560Z,1.48
2023-01-01T10:34:15.908Z,1.50
2023-01-01T10:39:20.600Z,1.23
2023-01-01T10:44:31.004Z,1.13
2023-01-01T10:49:33.983Z,1.10
2023-01-01T10:54:41.618Z,1.00
2023-01-01T10:59:53.518Z,0.90
2023-01-01T11:05:21.524Z,0.88
2023-01-01T11:10:26.719Z,1.00
2023-01-01T11:15:37.828Z,1.13
2023-01-01T11:20:41.580Z,0.85
2023-01-01T11:26:01.293Z,1.27
2023-01-01T11:31:16.993Z,1.00
2023-01-01T11:36:25.527Z,0.85
2023-01-01T11:41:29.790Z,0.73
2023-01-01T11:46:33.169Z,0.95
2023-01-01T11:51:36.145Z,0.65
2023-01-01T11:56:41.210Z,0.93
2023-01-01T12:01:48.135Z,0.80
2023-01-01T12:06:56.622Z,1.33
2023-01-01T12:17:15.993Z,1.47
2023-01-01T12:22:20.458Z,1.30
2023-01-01T12:27:43.379Z,0.88
2023-01-01T12:33:08.230Z,0.88
2023-01-01T12:38:20.765Z,1.00
2023-01-01T12:43:32.851Z,0.85
2023-01-01T12:49:08.576Z,1.15
2023-01-01T12:54:55.599Z,0.90
2023-01-01T13:00:04.425Z,1.10
2023-01-01T13:05:17.085Z,1.02
2023-01-01T13:10:27.586Z,1.23
2023-01-01T13:15:49.379Z,1.13
2023-01-01T13:20:58.271Z,1.20
2023-01-01T13:26:32.112Z,1.15
2023-01-01T13:32:01.944Z,1.38
2023-01-01T13:37:26.847Z,1.30
2023-01-01T13:42:43.856Z,1.23
2023-01-01T13:48:05.701Z,1.25
2023-01-01T13:53:38.396Z,1.27
2023-01-01T13:59:07.805Z,1.13
2023-01-01T14:04:27.319Z,1.00
2023-01-01T14:09:30.196Z,1.50
2023-01-01T14:14:34.372Z,1.63
2023-01-01T14:19:41.580Z,1.30
2023-01-01T14:24:47.130Z,1.27
2023-01-01T14:29:52.410Z,1.40
2023-01-01T14:35:03.566Z,1.42
2023-01-01T14:40:17.022Z,2.05
2023-01-01T14:45:20.271Z,1.65
2023-01-01T14:50:30.839Z,1.38
2023-01-01T14:55:40.371Z,2.05
2023-01-01T15:00:43.427Z,1.80
2023-01-01T15:05:58.821Z,1.73
2023-01-01T15:11:04.482Z,1.35
2023-01-01T15:16:17.681Z,1.85
2023-01-01T15:21:38.734Z,1.50
2023-01-01T15:26:44.202Z,1.58
2023-01-01T15:31:50.341Z,1.75
2023-01-01T15:36:56.693Z,1.90
2023-01-01T15:41:59.636Z,1.40
2023-01-01T15:47:12.721Z,1.60
2023-01-01T15:52:27.792Z,2.08
2023-01-01T15:57:30.707Z,1.70
2023-01-01T16:02:36.480Z,1.65
2023-01-01T16:07:40.804Z,1.92
2023-01-01T16:12:43.602Z,3.15
2023-01-01T16:17:47.177Z,2.72
2023-01-01T16:22:51.328Z,4.25
2023-01-01T16:27:54.081Z,2.00
2023-01-01T16:32:57.135Z,2.70
2023-01-01T16:38:01.248Z,2.70
2023-01-01T16:43:05.751Z,1.98
2023-01-01T16:48:08.669Z,2.47
2023-01-01T16:53:14.603Z,3.22
2023-01-01T16:58:48.613Z,1.90
2023-01-01T17:03:40.270Z,3.33
2023-01-01T17:08:44.463Z,3.30
2023-01-01T17:13:48.615Z,2.50
2023-01-01T17:24:16.616Z,3.03
2023-01-01T17:29:19.720Z,2.20
2023-01-01T17:34:22.761Z,3.10
2023-01-01T17:39:27.061Z,2.25
2023-01-01T17:44:32.015Z,2.80
2023-01-01T17:49:34.916Z,6.95
2023-01-01T17:54:39.299Z,2.55
2023-01-01T17:59:42.098Z,3.13
2023-01-01T18:04:45.143Z,2.60
2023-01-01T18:09:49.804Z,2.72
2023-01-01T18:14:52.663Z,3.40
2023-01-01T18:19:55.465Z,16.40
2023-01-01T18:24:59.789Z,9.90
2023-01-01T18:30:02.640Z,12.90
2023-01-01T18:35:06.528Z,3.47
2023-01-01T18:40:15.318Z,3.97
2023-01-01T18:45:21.333Z,3.05
2023-01-01T18:50:27.519Z,4.13
2023-01-01T18:55:32.291Z,4.18
2023-01-01T19:00:38.200Z,3.00
2023-01-01T19:05:41.039Z,3.25
2023-01-01T19:10:49.759Z,3.20
2023-01-01T19:15:58.331Z,3.47
2023-01-01T19:21:15.834Z,3.00
2023-01-01T19:26:25.705Z,3.03
2023-01-01T19:31:36.133Z,4.15
2023-01-01T19:36:39.308Z,3.60
2023-01-01T19:41:44.959Z,3.60
2023-01-01T19:46:47.878Z,6.88
2023-01-01T19:51:52.742Z,6.85
2023-01-01T19:56:58.213Z,5.30
2023-01-01T20:07:25.367Z,3.90
2023-01-01T20:12:29.581Z,3.25
2023-01-01T20:17:32.545Z,3.35
2023-01-01T20:22:35.822Z,3.45
2023-01-01T20:28:00.596Z,4.18
2023-01-01T20:33:06.366Z,3.15
2023-01-01T20:38:09.221Z,3.80
2023-01-01T20:43:13.505Z,4.15
2023-01-01T20:48:19.781Z,3.20
2023-01-01T20:53:22.939Z,4.07
2023-01-01T20:58:28.419Z,4.30
2023-01-01T21:03:31.438Z,4.10
2023-01-01T21:08:34.400Z,3.90
2023-01-01T21:13:38.968Z,4.53
2023-01-01T21:18:42.291Z,4.00
2023-01-01T21:23:45.152Z,3.80
2023-01-01T21:28:49.573Z,3.70
2023-01-01T21:33:52.524Z,3.88
2023-01-01T21:38:55.539Z,4.00
2023-01-01T21:44:00.214Z,3.53
2023-01-01T21:49:07.684Z,4.28
2023-01-01T21:54:19.400Z,3.90
2023-01-01T21:59:38.516Z,3.28
2023-01-01T22:04:43.021Z,3.08
2023-01-01T22:09:47.966Z,3.17
2023-01-01T22:14:54.001Z,3.65
2023-01-01T22:20:00.777Z,3.17
2023-01-01T22:25:26.189Z,3.22
2023-01-01T22:30:41.320Z,2.70
2023-01-01T22:35:44.519Z,3.15
2023-01-01T22:40:49.779Z,2.53
2023-01-01T22:45:54.671Z,2.45
2023-01-01T22:51:01.828Z,2.42
2023-01-01T22:56:04.926Z,2.63
2023-01-01T23:01:09.127Z,2.47
2023-01-01T23:06:11.996Z,2.10
2023-01-01T23:11:14.810Z,3.00
2023-01-01T23:16:19.052Z,2.83
2023-01-01T23:21:27.283Z,2.85
2023-01-01T23:31:35.328Z,2.50
2023-01-01T23:36:39.281Z,2.47
2023-01-01T23:41:42.289Z,2.22
2023-01-01T23:46:46.859Z,2.78
2023-01-01T23:51:50.879Z,2.70
2023-01-01T23:56:53.644Z,2.55
